Time;durP1;ratioP1;P1;durP2;ratioP2;P2;SDS_P1;SDS_P2;PMS_P1;PMS_P2;Temp;Humidity;BMP_temperature;BMP_pressure;BME280_temperature;BME280_humidity;BME280_pressure;Samples;Min_cycle;Max_cycle;Signal;HPM_P1;HPM_P2
2023/10/02 00:00:43;;;;;;;10.57;6.97;;;14.30;99.90;;;;;;5055061;28;20165;-80
2023/10/02 00:03:10;;;;;;;10.87;6.80;;;14.30;99.90;;;;;;5053659;28;20258;-80
2023/10/02 00:05:52;;;;;;;8.07;6.43;;;14.30;99.90;;;;;;5054322;28;20168;-79
2023/10/02 00:08:42;;;;;;;9.80;6.63;;;14.20;99.90;;;;;;5054265;28;20638;-81
2023/10/02 00:16:42;;;;;;;11.47;7.13;;;14.10;99.90;;;;;;5054084;28;20254;-79
2023/10/02 00:19:18;;;;;;;11.70;7.47;;;14.10;99.90;;;;;;5054355;28;20203;-79
2023/10/02 00:21:45;;;;;;;10.97;7.43;;;14.00;99.90;;;;;;5053672;28;20248;-79
2023/10/02 00:24:13;;;;;;;10.30;6.50;;;14.00;99.90;;;;;;5054306;28;20199;-79
2023/10/02 00:26:39;;;;;;;9.37;7.47;;;14.00;99.90;;;;;;5053795;28;20587;-78
2023/10/02 00:29:07;;;;;;;10.70;7.27;;;14.00;99.90;;;;;;5054068;28;20269;-80
2023/10/02 00:31:38;;;;;;;13.23;7.20;;;14.10;99.90;;;;;;5056349;28;20169;-81
2023/10/02 00:34:04;;;;;;;9.93;7.40;;;14.10;99.90;;;;;;5064870;28;20210;-80
2023/10/02 00:36:30;;;;;;;11.10;7.80;;;14.00;99.90;;;;;;5057801;28;20290;-81
2023/10/02 00:39:24;;;;;;;11.03;7.30;;;14.10;99.90;;;;;;5055989;28;20199;-80
2023/10/02 00:44:55;;;;;;;12.07;7.53;;;14.20;99.90;;;;;;5058206;28;20182;-79
2023/10/02 00:50:11;;;;;;;10.67;7.37;;;14.20;99.90;;;;;;5053960;28;20178;-81
2023/10/02 00:52:58;;;;;;;11.60;7.50;;;14.10;99.90;;;;;;5053458;28;20285;-77
2023/10/02 00:55:26;;;;;;;12.90;8.07;;;14.10;99.90;;;;;;5053326;28;20156;-78
2023/10/02 00:57:56;;;;;;;11.07;8.13;;;14.20;99.90;;;;;;5053573;28;20200;-77
2023/10/02 01:00:36;;;;;;;15.10;8.47;;;14.20;99.90;;;;;;5053580;28;20225;-78
2023/10/02 01:03:08;;;;;;;13.03;7.83;;;14.30;99.90;;;;;;5053335;28;20161;-77
2023/10/02 01:05:50;;;;;;;12.53;7.23;;;14.20;99.90;;;;;;5053490;28;20681;-77
2023/10/02 01:08:42;;;;;;;10.93;7.27;;;14.30;99.90;;;;;;5056846;28;20155;-78
2023/10/02 01:11:13;;;;;;;9.23;7.17;;;14.30;99.90;;;;;;5057416;28;20639;-78
2023/10/02 01:13:40;;;;;;;9.40;7.07;;;14.20;99.90;;;;;;5057041;28;20167;-80
2023/10/02 01:16:11;;;;;;;13.03;7.57;;;14.20;99.90;;;;;;5057749;28;20184;-79
2023/10/02 01:18:38;;;;;;;11.00;7.37;;;14.10;99.90;;;;;;5057174;28;20176;-80
2023/10/02 01:21:11;;;;;;;10.17;7.50;;;14.00;99.90;;;;;;5057146;28;20215;-79
2023/10/02 01:24:06;;;;;;;10.30;6.63;;;14.00;99.90;;;;;;5057101;28;20171;-79
2023/10/02 01:26:35;;;;;;;9.63;7.47;;;14.00;99.90;;;;;;5057095;28;20172;-81
2023/10/02 01:29:03;;;;;;;11.93;7.57;;;14.00;99.90;;;;;;5059909;28;20225;-78
2023/10/02 01:31:36;;;;;;;11.03;7.67;;;14.10;99.90;;;;;;5057795;28;20176;-79
2023/10/02 01:34:04;;;;;;;11.70;7.70;;;14.00;99.90;;;;;;5068567;28;20183;-79
2023/10/02 01:36:34;;;;;;;11.37;7.67;;;14.00;99.90;;;;;;5060980;28;20632;-79
2023/10/02 01:39:10;;;;;;;10.27;7.23;;;14.10;99.90;;;;;;5057468;28;20642;-79
2023/10/02 01:41:40;;;;;;;12.47;7.50;;;14.10;99.90;;;;;;5057040;28;20171;-80
2023/10/02 01:44:10;;;;;;;8.83;6.90;;;14.20;99.90;;;;;;5056812;28;20168;-79
2023/10/02 01:46:50;;;;;;;9.80;7.23;;;14.20;99.90;;;;;;5056993;28;20164;-81
2023/10/02 01:49:26;;;;;;;8.97;6.87;;;14.10;99.90;;;;;;5057202;28;20164;-80
2023/10/02 01:51:58;;;;;;;11.30;7.67;;;14.10;99.90;;;;;;5056874;28;20160;-81
2023/10/02 01:54:29;;;;;;;11.60;7.47;;;14.10;99.90;;;;;;5056788;28;20178;-81
2023/10/02 01:56:56;;;;;;;10.47;6.93;;;14.00;99.90;;;;;;5049537;28;20223;-79
2023/10/02 01:59:24;;;;;;;15.10;6.87;;;14.00;99.90;;;;;;5056371;28;20283;-79
2023/10/02 02:01:52;;;;;;;9.90;7.40;;;14.10;99.90;;;;;;5056479;28;20218;-78
2023/10/02 02:04:22;;;;;;;10.23;7.17;;;14.00;99.90;;;;;;5056710;28;20182;-78
2023/10/02 02:06:51;;;;;;;13.33;7.40;;;14.20;99.90;;;;;;5059368;28;20184;-81
2023/10/02 02:09:23;;;;;;;9.23;6.87;;;14.10;99.90;;;;;;5057197;28;20179;-79
2023/10/02 02:12:05;;;;;;;9.03;6.40;;;14.10;99.90;;;;;;5056536;28;20161;-79
2023/10/02 02:14:32;;;;;;;13.03;7.13;;;14.00;99.90;;;;;;5056338;28;20210;-80
2023/10/02 02:16:59;;;;;;;9.57;6.77;;;14.00;99.90;;;;;;5055941;28;20216;-81
2023/10/02 02:19:25;;;;;;;10.53;7.07;;;14.00;99.90;;;;;;5055447;28;20172;-81
2023/10/02 02:21:56;;;;;;;10.10;6.83;;;13.90;99.90;;;;;;5051951;28;20224;-81
2023/10/02 02:24:24;;;;;;;10.93;7.20;;;13.90;99.90;;;;;;5055843;28;20226;-81
2023/10/02 02:26:57;;;;;;;11.10;7.70;;;14.00;99.90;;;;;;5036988;28;20184;-80
2023/10/02 02:29:23;;;;;;;9.83;6.63;;;14.00;99.90;;;;;;5054950;28;20170;-81
2023/10/02 02:31:50;;;;;;;10.97;7.53;;;14.00;99.90;;;;;;5066828;28;20160;-78
2023/10/02 02:34:16;;;;;;;10.77;6.83;;;14.00;99.90;;;;;;5076430;28;20178;-80
2023/10/02 02:36:47;;;;;;;10.60;7.30;;;13.90;99.90;;;;;;5059031;28;20325;-78
2023/10/02 02:39:16;;;;;;;9.03;6.90;;;13.90;99.90;;;;;;5056258;28;20171;-79
2023/10/02 02:42:08;;;;;;;15.83;7.57;;;13.90;99.90;;;;;;5056544;28;20179;-79
2023/10/02 02:44:46;;;;;;;11.27;6.77;;;13.90;99.90;;;;;;5038105;28;20172;-77
2023/10/02 02:47:18;;;;;;;10.77;6.83;;;13.80;99.90;;;;;;5055265;28;20182;-77
2023/10/02 02:49:48;;;;;;;10.93;7.03;;;13.80;99.90;;;;;;5055809;28;20246;-77
2023/10/02 02:52:16;;;;;;;9.20;6.63;;;13.80;99.90;;;;;;5055057;28;20247;-80
2023/10/02 02:54:58;;;;;;;12.60;7.27;;;13.70;99.90;;;;;;5055448;28;20192;-78
2023/10/02 02:57:28;;;;;;;10.27;6.93;;;13.70;99.90;;;;;;5055282;28;20203;-79
2023/10/02 03:02:46;;;;;;;10.27;6.70;;;13.70;99.90;;;;;;5055775;28;20179;-80
2023/10/02 03:05:13;;;;;;;10.47;7.30;;;13.70;99.90;;;;;;5055430;28;20179;-78
2023/10/02 03:07:40;;;;;;;13.10;7.27;;;13.70;99.90;;;;;;5055581;28;20623;-80
2023/10/02 03:10:11;;;;;;;12.90;7.50;;;13.70;99.90;;;;;;5065553;28;20187;-80
2023/10/02 03:12:49;;;;;;;11.27;7.07;;;13.70;99.90;;;;;;5058324;28;20186;-79
2023/10/02 03:15:20;;;;;;;10.33;6.90;;;13.70;99.90;;;;;;5055079;28;20158;-80
2023/10/02 03:17:48;;;;;;;9.83;7.30;;;13.70;99.90;;;;;;5061384;28;20256;-79
2023/10/02 03:20:24;;;;;;;10.53;7.03;;;13.70;99.90;;;;;;5057956;28;20233;-77
2023/10/02 03:22:59;;;;;;;10.67;6.90;;;13.80;99.90;;;;;;5055175;28;20167;-80
2023/10/02 03:25:28;;;;;;;11.50;7.80;;;13.70;99.90;;;;;;5054747;28;20160;-80
2023/10/02 03:27:55;;;;;;;14.33;7.53;;;13.70;99.90;;;;;;5054507;28;20254;-81
2023/10/02 03:30:38;;;;;;;11.03;7.00;;;13.70;99.90;;;;;;5054082;28;20175;-79
2023/10/02 03:33:23;;;;;;;11.53;7.00;;;13.70;99.90;;;;;;5037480;28;20202;-81
2023/10/02 03:35:58;;;;;;;10.93;6.60;;;13.70;99.90;;;;;;5055119;28;20163;-80
2023/10/02 03:38:26;;;;;;;11.03;6.77;;;13.70;99.90;;;;;;5054531;28;20206;-79
2023/10/02 03:40:59;;;;;;;9.57;6.13;;;13.70;99.90;;;;;;5036292;28;20271;-80
2023/10/02 03:43:35;;;;;;;11.73;7.20;;;13.70;99.90;;;;;;5058943;28;20168;-79
2023/10/02 03:46:06;;;;;;;10.77;7.07;;;13.60;99.90;;;;;;5053767;28;20627;-81
2023/10/02 03:48:36;;;;;;;13.03;6.93;;;13.60;99.90;;;;;;5053669;28;20160;-80
2023/10/02 03:51:06;;;;;;;10.17;6.97;;;13.60;99.90;;;;;;5053693;28;20632;-80
2023/10/02 03:53:34;;;;;;;13.20;7.37;;;13.60;99.90;;;;;;5053354;28;20175;-79
2023/10/02 03:58:53;;;;;;;12.57;7.73;;;13.50;99.90;;;;;;5054377;28;20206;-80
2023/10/02 04:01:29;;;;;;;11.10;7.07;;;13.50;99.90;;;;;;5055038;28;20267;-79
2023/10/02 04:06:55;;;;;;;12.37;6.93;;;13.60;99.90;;;;;;4972949;28;20213;-79
2023/10/02 04:09:25;;;;;;;11.10;7.30;;;13.50;99.90;;;;;;4973284;28;20210;-81
2023/10/02 04:11:53;;;;;;;14.47;6.83;;;13.50;99.90;;;;;;4973280;28;20214;-81
2023/10/02 04:14:31;;;;;;;11.30;7.00;;;13.50;99.90;;;;;;4975833;28;20276;-81
2023/10/02 04:19:52;;;;;;;10.70;7.23;;;13.50;99.90;;;;;;4975167;28;20279;-80
2023/10/02 04:22:27;;;;;;;11.70;6.90;;;13.40;99.90;;;;;;4972549;28;20744;-82
2023/10/02 04:24:58;;;;;;;14.77;6.97;;;13.40;99.90;;;;;;4972178;28;20746;-81
2023/10/02 04:28:00;;;;;;;12.67;8.20;;;13.40;99.90;;;;;;4972517;28;20253;-80
2023/10/02 04:30:24;;;;;;;16.50;7.37;;;13.40;99.90;;;;;;4971488;28;20206;-82
2023/10/02 04:32:51;;;;;;;16.50;7.93;;;13.40;99.90;;;;;;4972266;28;20233;-82
2023/10/02 04:38:08;;;;;;;14.93;7.73;;;13.40;99.90;;;;;;4975047;28;20355;-82
2023/10/02 04:40:44;;;;;;;12.17;7.20;;;13.30;99.90;;;;;;4980840;28;20194;-80
2023/10/02 04:43:19;;;;;;;13.57;7.80;;;13.40;99.90;;;;;;5017279;28;20176;-80
2023/10/02 04:46:02;;;;;;;13.87;7.47;;;13.40;99.90;;;;;;5059990;28;20183;-81
2023/10/02 04:48:39;;;;;;;12.07;7.10;;;13.40;99.90;;;;;;5059690;28;20198;-80
2023/10/02 04:51:09;;;;;;;17.03;7.43;;;13.40;99.90;;;;;;5059443;28;20156;-82
2023/10/02 04:53:36;;;;;;;11.23;7.70;;;13.40;99.90;;;;;;5059586;28;20166;-82
2023/10/02 04:58:51;;;;;;;13.97;7.20;;;13.40;99.90;;;;;;5059533;28;20195;-79
2023/10/02 05:01:34;;;;;;;14.37;7.87;;;13.30;99.90;;;;;;5059297;28;20178;-80
2023/10/02 05:04:07;;;;;;;13.37;7.27;;;13.30;99.90;;;;;;5041603;28;20179;-81
2023/10/02 05:06:44;;;;;;;12.47;8.00;;;13.30;99.90;;;;;;5059437;28;20160;-80
2023/10/02 05:09:20;;;;;;;13.50;7.60;;;13.30;99.90;;;;;;5059468;28;20178;-82
2023/10/02 05:11:57;;;;;;;15.70;8.60;;;13.30;99.90;;;;;;5059678;28;20159;-81
2023/10/02 05:14:26;;;;;;;12.27;7.50;;;13.30;99.90;;;;;;5064331;28;20168;-82
2023/10/02 05:17:17;;;;;;;13.07;8.13;;;13.30;99.90;;;;;;5067676;28;20199;-80
2023/10/02 05:19:56;;;;;;;14.53;7.40;;;13.30;99.90;;;;;;5068433;28;20188;-80
2023/10/02 05:22:27;;;;;;;14.07;8.47;;;13.30;99.90;;;;;;5059613;28;20172;-78
2023/10/02 05:24:58;;;;;;;13.50;8.10;;;13.40;99.90;;;;;;5060425;28;20321;-79
2023/10/02 05:27:36;;;;;;;15.77;8.23;;;13.50;99.90;;;;;;5043104;28;20179;-79
2023/10/02 05:30:14;;;;;;;13.57;7.53;;;13.50;99.90;;;;;;5060094;28;20678;-80
2023/10/02 05:32:40;;;;;;;13.50;8.10;;;13.50;99.90;;;;;;5062449;28;20214;-80
2023/10/02 05:37:40;;;;;;;13.20;7.60;;;13.60;99.90;;;;;;5063670;28;20211;-79
2023/10/02 05:48:27;;;;;;;13.10;8.33;;;13.60;99.90;;;;;;5060514;28;20193;-79
2023/10/02 05:50:56;;;;;;;19.93;8.43;;;13.60;99.90;;;;;;5060907;28;20156;-82
2023/10/02 05:53:29;;;;;;;17.97;8.83;;;13.70;99.90;;;;;;5059076;28;20520;-80
2023/10/02 05:58:39;;;;;;;17.83;8.17;;;13.80;99.90;;;;;;5061226;28;20731;-78
2023/10/02 06:01:18;;;;;;;16.63;8.93;;;13.80;99.90;;;;;;5068100;28;20172;-79
2023/10/02 06:04:00;;;;;;;17.50;7.83;;;13.80;99.90;;;;;;5040725;28;20175;-80
2023/10/02 06:06:37;;;;;;;13.77;7.90;;;13.90;99.90;;;;;;5046637;28;20171;-81
2023/10/02 06:09:12;;;;;;;12.97;7.33;;;13.90;99.90;;;;;;5059882;28;20254;-81
2023/10/02 06:12:02;;;;;;;17.67;8.40;;;13.90;99.90;;;;;;5058308;28;20164;-80
2023/10/02 06:14:28;;;;;;;13.60;7.60;;;13.90;99.90;;;;;;5059626;28;20156;-79
2023/10/02 06:16:54;;;;;;;18.03;8.77;;;14.00;99.90;;;;;;5057600;28;20213;-80
2023/10/02 06:19:20;;;;;;;17.50;8.57;;;14.00;99.90;;;;;;5057362;28;20644;-79
2023/10/02 06:22:04;;;;;;;15.20;7.83;;;14.10;99.90;;;;;;5056570;28;20234;-79
2023/10/02 06:24:30;;;;;;;15.77;8.77;;;14.20;99.90;;;;;;5055870;28;20159;-79
2023/10/02 06:26:57;;;;;;;14.43;8.17;;;14.20;99.90;;;;;;5063026;28;20197;-80
2023/10/02 06:29:32;;;;;;;17.33;8.47;;;14.30;99.90;;;;;;5059385;28;20172;-79
2023/10/02 06:31:58;;;;;;;14.87;7.80;;;14.30;99.90;;;;;;5058621;28;20162;-79
2023/10/02 06:34:37;;;;;;;13.73;8.30;;;14.40;99.90;;;;;;5057858;28;20570;-80
2023/10/02 06:37:19;;;;;;;17.03;8.00;;;14.40;99.90;;;;;;5068904;28;20253;-78
2023/10/02 06:42:31;;;;;;;15.77;8.07;;;14.60;99.90;;;;;;5056385;28;20159;-77
2023/10/02 06:45:01;;;;;;;17.07;8.27;;;14.60;99.90;;;;;;5056871;28;20689;-79
2023/10/02 06:47:30;;;;;;;17.17;8.60;;;14.60;99.90;;;;;;5039714;28;20228;-79
2023/10/02 06:50:03;;;;;;;14.67;8.10;;;14.70;99.90;;;;;;5056102;28;20233;-78
2023/10/02 06:52:33;;;;;;;15.57;8.27;;;14.80;99.90;;;;;;5055393;28;20229;-81
2023/10/02 06:55:01;;;;;;;16.07;8.53;;;14.80;99.90;;;;;;5056240;28;20259;-78
2023/10/02 06:57:28;;;;;;;15.00;7.93;;;14.90;99.90;;;;;;5057653;28;20195;-79
2023/10/02 06:59:54;;;;;;;13.70;8.00;;;15.00;99.90;;;;;;5047459;28;20238;-78
2023/10/02 07:02:27;;;;;;;15.00;7.83;;;15.00;99.90;;;;;;5062538;28;20179;-78
2023/10/02 07:04:54;;;;;;;16.53;8.50;;;15.10;99.90;;;;;;5057625;28;20185;-78
2023/10/02 07:07:25;;;;;;;18.20;8.37;;;15.10;99.90;;;;;;5055840;28;20172;-77
2023/10/02 07:09:54;;;;;;;15.43;8.33;;;15.20;99.90;;;;;;5055109;28;20638;-79
2023/10/02 07:12:21;;;;;;;15.73;8.20;;;15.30;99.90;;;;;;5055208;28;20183;-78
2023/10/02 07:14:48;;;;;;;12.30;7.40;;;15.30;99.90;;;;;;5054830;28;20176;-78
2023/10/02 07:17:18;;;;;;;16.30;7.80;;;15.40;99.90;;;;;;5055033;28;20574;-79
2023/10/02 07:19:49;;;;;;;14.23;7.40;;;15.40;99.90;;;;;;5055404;28;20172;-79
2023/10/02 07:22:24;;;;;;;17.23;9.13;;;15.50;99.90;;;;;;5065834;28;20228;-79
2023/10/02 07:24:55;;;;;;;13.37;7.40;;;15.50;99.90;;;;;;5055490;28;20167;-80
2023/10/02 07:27:25;;;;;;;17.00;7.87;;;15.60;99.90;;;;;;5037641;28;20235;-80
2023/10/02 07:29:59;;;;;;;15.77;8.27;;;15.70;99.90;;;;;;5055411;28;20254;-79
2023/10/02 07:32:27;;;;;;;14.90;7.33;;;15.70;99.90;;;;;;5057234;28;20234;-78
2023/10/02 07:34:54;;;;;;;14.40;7.30;;;15.80;99.90;;;;;;5040764;28;20611;-79
2023/10/02 07:37:22;;;;;;;14.67;8.13;;;15.90;99.90;;;;;;5036394;28;20270;-80
2023/10/02 07:39:58;;;;;;;16.00;8.03;;;16.00;99.90;;;;;;5054712;28;20218;-79
2023/10/02 07:42:28;;;;;;;13.20;7.70;;;16.10;99.90;;;;;;5055203;28;20221;-78
2023/10/02 07:45:11;;;;;;;12.53;8.10;;;16.10;99.90;;;;;;5057881;28;20221;-80
2023/10/02 07:47:39;;;;;;;17.43;8.40;;;16.20;99.90;;;;;;5054416;28;20175;-77
2023/10/02 07:50:23;;;;;;;18.73;8.07;;;16.30;99.90;;;;;;5036064;28;20202;-79
2023/10/02 07:52:49;;;;;;;18.20;8.77;;;16.40;99.90;;;;;;5036012;28;20684;-78
2023/10/02 07:55:15;;;;;;;15.23;8.47;;;16.40;99.90;;;;;;5054136;28;20166;-80
2023/10/02 07:57:41;;;;;;;14.87;8.57;;;16.50;99.90;;;;;;5053863;28;20666;-77
2023/10/02 08:00:33;;;;;;;14.33;8.00;;;16.50;99.90;;;;;;5054390;28;20247;-80
2023/10/02 08:02:54;;;;;;;13.80;8.67;;;16.60;99.90;;;;;;5054269;28;20180;-79
2023/10/02 08:05:20;;;;;;;13.57;8.47;;;16.70;99.90;;;;;;5053823;28;20234;-79
2023/10/02 08:07:46;;;;;;;13.47;8.07;;;16.80;99.90;;;;;;5054292;28;20329;-80
2023/10/02 08:10:14;;;;;;;14.40;8.17;;;16.80;99.90;;;;;;5053876;28;20700;-79
2023/10/02 08:12:54;;;;;;;11.57;7.07;;;16.80;99.90;;;;;;5054380;28;20266;-79
2023/10/02 08:15:27;;;;;;;17.30;8.20;;;16.90;99.90;;;;;;5054163;28;20205;-79
2023/10/02 08:20:24;;;;;;;15.00;7.43;;;17.00;99.90;;;;;;5051529;28;20225;-81
2023/10/02 08:22:54;;;;;;;16.30;9.03;;;17.00;99.90;;;;;;5053783;28;20160;-80
2023/10/02 08:25:23;;;;;;;15.27;8.03;;;17.10;99.90;;;;;;5053772;28;20233;-79
2023/10/02 08:27:57;;;;;;;16.60;9.03;;;17.10;99.90;;;;;;5036002;28;20211;-79
2023/10/02 08:30:31;;;;;;;14.83;8.03;;;17.20;99.90;;;;;;5053963;28;20160;-80
2023/10/02 08:33:08;;;;;;;15.30;7.80;;;17.20;99.90;;;;;;5065309;28;20179;-79
2023/10/02 08:35:37;;;;;;;14.33;9.23;;;17.30;99.90;;;;;;5053871;28;20163;-79
2023/10/02 08:38:07;;;;;;;13.50;7.63;;;17.40;99.90;;;;;;5053650;28;20203;-77
2023/10/02 08:40:33;;;;;;;14.60;8.33;;;17.40;99.90;;;;;;5036154;28;20250;-81
2023/10/02 08:42:59;;;;;;;13.27;8.00;;;17.50;99.90;;;;;;5042067;28;20176;-78
2023/10/02 08:45:26;;;;;;;13.87;7.63;;;17.60;99.90;;;;;;5058354;28;20190;-79
2023/10/02 08:47:52;;;;;;;16.07;8.93;;;17.70;99.90;;;;;;5054146;28;20172;-79
2023/10/02 08:50:18;;;;;;;15.97;8.60;;;17.70;99.90;;;;;;5053747;28;20178;-81
2023/10/02 08:52:50;;;;;;;13.33;8.23;;;17.70;99.90;;;;;;5054093;28;20302;-80
2023/10/02 08:55:34;;;;;;;13.93;7.80;;;17.80;99.90;;;;;;5056121;28;20152;-80
2023/10/02 08:58:16;;;;;;;16.70;8.17;;;17.80;99.90;;;;;;5061812;28;20214;-81
2023/10/02 09:03:41;;;;;;;13.53;8.77;;;18.00;99.90;;;;;;5056120;28;20604;-82
2023/10/02 09:06:31;;;;;;;18.60;8.90;;;18.10;99.90;;;;;;5058116;28;20184;-79
2023/10/02 09:11:45;;;;;;;14.27;8.33;;;18.10;99.90;;;;;;5054288;28;20175;-78
2023/10/02 09:17:16;;;;;;;15.73;9.27;;;18.30;99.90;;;;;;5054256;28;20207;-81
2023/10/02 09:20:00;;;;;;;15.73;8.87;;;18.30;99.90;;;;;;5053356;28;20214;-80
2023/10/02 09:22:27;;;;;;;13.60;8.63;;;18.50;99.90;;;;;;5054000;28;20215;-80
2023/10/02 09:25:10;;;;;;;15.07;9.10;;;18.60;99.90;;;;;;5056863;28;20171;-80
2023/10/02 09:27:41;;;;;;;16.27;8.97;;;18.60;99.90;;;;;;5053273;28;20623;-80
2023/10/02 09:30:36;;;;;;;16.37;8.80;;;18.70;99.90;;;;;;5055910;28;20157;-78
2023/10/02 09:33:10;;;;;;;18.13;8.90;;;18.70;99.90;;;;;;5056677;28;20164;-79
2023/10/02 09:35:40;;;;;;;13.93;8.10;;;18.80;99.90;;;;;;5057395;28;20251;-79
2023/10/02 09:38:10;;;;;;;15.07;8.17;;;18.90;99.90;;;;;;5041977;28;20218;-81
2023/10/02 09:43:28;;;;;;;14.43;8.50;;;19.00;99.90;;;;;;5057141;28;20179;-79
2023/10/02 09:45:56;;;;;;;18.93;9.47;;;19.10;99.90;;;;;;5056818;28;20188;-80
2023/10/02 09:51:38;;;;;;;16.47;9.67;;;19.20;99.90;;;;;;5056324;28;20160;-79
2023/10/02 09:54:25;;;;;;;16.20;9.20;;;19.20;99.90;;;;;;5056511;28;20180;-78
2023/10/02 09:57:11;;;;;;;17.60;10.23;;;19.20;99.90;;;;;;5056233;28;20167;-80
2023/10/02 09:59:47;;;;;;;12.47;8.53;;;19.20;99.90;;;;;;5056275;28;20190;-79
2023/10/02 10:07:46;;;;;;;16.00;8.80;;;19.20;99.90;;;;;;5060648;28;20527;-80
2023/10/02 10:10:45;;;;;;;12.57;8.03;;;19.30;99.90;;;;;;5039172;28;20187;-79
2023/10/02 10:13:24;;;;;;;15.03;8.30;;;19.30;99.90;;;;;;5056680;28;20164;-80
2023/10/02 10:15:51;;;;;;;14.67;8.57;;;19.40;99.90;;;;;;5038386;28;20171;-79
2023/10/02 10:18:17;;;;;;;14.00;8.90;;;19.40;99.90;;;;;;5055753;28;20207;-79
2023/10/02 10:20:44;;;;;;;14.17;8.80;;;19.50;99.90;;;;;;5055891;28;20702;-78
2023/10/02 10:23:31;;;;;;;13.27;8.53;;;19.60;99.90;;;;;;5056200;28;20183;-80
2023/10/02 10:26:07;;;;;;;17.43;9.20;;;19.70;99.90;;;;;;5038252;28;20541;-80
2023/10/02 10:28:50;;;;;;;13.50;8.50;;;19.70;99.90;;;;;;5055930;28;20163;-80
2023/10/02 10:31:29;;;;;;;16.17;9.83;;;19.80;99.90;;;;;;5055926;28;20187;-80
2023/10/02 10:33:56;;;;;;;16.80;10.57;;;19.90;99.90;;;;;;5056620;28;20164;-81
2023/10/02 10:36:36;;;;;;;14.80;9.03;;;20.10;99.90;;;;;;5056913;28;20263;-79
2023/10/02 10:39:30;;;;;;;15.10;9.63;;;20.20;99.90;;;;;;5066355;28;20148;-80
2023/10/02 10:41:57;;;;;;;17.50;10.53;;;20.20;99.90;;;;;;5076469;28;20235;-79
2023/10/02 10:44:35;;;;;;;14.10;9.10;;;20.30;99.90;;;;;;5057846;28;20170;-82
2023/10/02 10:47:03;;;;;;;11.63;8.63;;;20.30;99.90;;;;;;5070839;28;20171;-80
2023/10/02 10:50:14;;;;;;;14.57;8.60;;;20.30;99.90;;;;;;5055756;28;20229;-79
2023/10/02 10:52:39;;;;;;;14.23;8.27;;;20.30;99.90;;;;;;5055152;28;20183;-81
2023/10/02 10:55:32;;;;;;;13.07;8.40;;;20.40;99.90;;;;;;5055811;28;20628;-80
2023/10/02 10:57:58;;;;;;;12.80;8.60;;;20.40;99.90;;;;;;5055676;28;20705;-80
2023/10/02 11:00:24;;;;;;;14.93;8.47;;;20.40;99.90;;;;;;5056485;28;20518;-80
2023/10/02 11:03:08;;;;;;;14.50;8.33;;;20.50;99.90;;;;;;5058185;28;20247;-81
2023/10/02 11:05:35;;;;;;;12.80;8.10;;;20.50;99.90;;;;;;5060539;28;20721;-79
2023/10/02 11:08:23;;;;;;;13.77;8.23;;;20.50;99.90;;;;;;5062725;28;20179;-82
2023/10/02 11:11:19;;;;;;;15.10;8.50;;;20.50;99.90;;;;;;5063245;28;20624;-80
2023/10/02 11:13:50;;;;;;;13.37;8.47;;;20.60;99.90;;;;;;5039251;28;20179;-80
2023/10/02 11:16:30;;;;;;;13.63;8.23;;;20.60;99.90;;;;;;5037438;28;20195;-80
2023/10/02 11:19:13;;;;;;;11.50;7.80;;;20.60;99.90;;;;;;5057643;28;20192;-80
2023/10/02 11:21:45;;;;;;;14.73;8.37;;;20.70;99.90;;;;;;5060919;28;20235;-80
2023/10/02 11:24:23;;;;;;;14.10;8.03;;;20.60;99.90;;;;;;5054890;28;20527;-79
2023/10/02 11:26:55;;;;;;;12.43;8.13;;;20.70;99.90;;;;;;5057663;28;20179;-83
2023/10/02 11:29:21;;;;;;;15.47;8.77;;;20.70;99.90;;;;;;5062009;28;20255;-79
2023/10/02 11:34:51;;;;;;;9.67;7.43;;;20.90;99.90;;;;;;5055046;28;20167;-80
2023/10/02 11:37:18;;;;;;;12.83;8.60;;;20.90;99.90;;;;;;5036975;28;20220;-80
2023/10/02 11:39:50;;;;;;;11.17;7.67;;;20.90;99.90;;;;;;5054453;28;20204;-81
2023/10/02 11:42:17;;;;;;;12.23;8.13;;;21.00;99.90;;;;;;5055648;28;20206;-80
2023/10/02 11:44:43;;;;;;;12.17;7.63;;;21.00;99.90;;;;;;5058588;28;20172;-81
2023/10/02 11:47:12;;;;;;;13.23;7.90;;;21.10;99.90;;;;;;5054393;28;20259;-80
2023/10/02 11:49:39;;;;;;;10.37;7.40;;;21.20;99.90;;;;;;5055477;28;20678;-78
2023/10/02 11:52:06;;;;;;;12.87;8.17;;;21.30;99.90;;;;;;5054369;28;20168;-81
2023/10/02 11:54:41;;;;;;;11.93;8.10;;;21.30;99.90;;;;;;5054556;28;20168;-80
2023/10/02 11:57:12;;;;;;;13.60;8.53;;;21.20;99.90;;;;;;5054777;28;20658;-81
2023/10/02 11:59:43;;;;;;;11.77;7.87;;;21.30;99.90;;;;;;5054465;28;20191;-78
2023/10/02 12:02:11;;;;;;;11.03;7.70;;;21.30;99.90;;;;;;5055006;28;20171;-79
2023/10/02 12:04:38;;;;;;;11.40;7.40;;;21.30;99.90;;;;;;5054723;28;20180;-81
2023/10/02 12:07:05;;;;;;;11.53;8.17;;;21.30;99.90;;;;;;5054919;28;20662;-81
2023/10/02 12:09:33;;;;;;;12.43;8.10;;;21.30;99.90;;;;;;5054646;28;20176;-80
2023/10/02 12:11:59;;;;;;;13.73;8.00;;;21.40;99.90;;;;;;5054581;28;20176;-79
2023/10/02 12:14:29;;;;;;;12.97;8.10;;;21.50;99.90;;;;;;5054877;28;20616;-80
2023/10/02 12:16:57;;;;;;;10.73;7.20;;;21.50;99.90;;;;;;5054709;28;20156;-80
2023/10/02 12:19:28;;;;;;;11.70;8.40;;;21.50;99.90;;;;;;5055073;28;20611;-80
2023/10/02 12:21:55;;;;;;;12.93;8.57;;;21.50;99.90;;;;;;5056458;28;20211;-80
2023/10/02 12:24:21;;;;;;;12.90;8.53;;;21.50;99.90;;;;;;5067189;28;20236;-82
2023/10/02 12:26:47;;;;;;;13.57;7.57;;;21.50;99.90;;;;;;5054594;28;20175;-80
2023/10/02 12:29:14;;;;;;;19.13;8.33;;;21.50;99.90;;;;;;5054490;28;20175;-80
2023/10/02 12:31:41;;;;;;;12.20;8.53;;;21.60;99.90;;;;;;5053426;28;20183;-81
2023/10/02 12:34:07;;;;;;;14.07;8.13;;;21.60;99.90;;;;;;5035780;28;20178;-80
2023/10/02 12:36:33;;;;;;;11.70;8.37;;;21.60;99.90;;;;;;5056245;28;20250;-82
2023/10/02 12:38:59;;;;;;;12.20;8.40;;;21.70;99.90;;;;;;5054180;28;20551;-81
2023/10/02 12:41:27;;;;;;;14.43;8.00;;;21.70;99.90;;;;;;5053767;28;20178;-81
2023/10/02 12:43:56;;;;;;;13.43;8.57;;;21.60;99.90;;;;;;5055264;28;20171;-81
2023/10/02 12:46:31;;;;;;;11.17;8.07;;;21.70;99.90;;;;;;5057344;28;20267;-80
2023/10/02 12:48:58;;;;;;;12.83;8.53;;;21.80;99.90;;;;;;5061220;28;20215;-83
2023/10/02 12:51:25;;;;;;;14.53;9.13;;;21.90;99.90;;;;;;5056159;28;20197;-79
2023/10/02 12:53:51;;;;;;;15.65;9.23;;;21.80;99.90;;;;;;5036251;28;20262;-80
2023/10/02 12:56:19;;;;;;;13.40;8.73;;;21.80;99.90;;;;;;5054332;28;20223;-79
2023/10/02 12:58:49;;;;;;;14.03;9.07;;;21.90;99.90;;;;;;5053697;28;20916;-80
2023/10/02 13:01:27;;;;;;;13.83;9.20;;;21.90;99.90;;;;;;5054160;28;20168;-81
2023/10/02 13:03:54;;;;;;;14.53;8.27;;;21.80;99.90;;;;;;5056604;28;20156;-80
2023/10/02 13:06:22;;;;;;;13.00;8.03;;;21.90;99.90;;;;;;5057643;28;20172;-80
2023/10/02 13:08:48;;;;;;;15.50;9.23;;;21.90;99.90;;;;;;5057698;28;20172;-80
2023/10/02 13:11:19;;;;;;;13.77;8.50;;;21.90;99.90;;;;;;5040007;28;20181;-80
2023/10/02 13:13:46;;;;;;;13.75;9.45;;;21.80;99.90;;;;;;5058098;28;20179;-79
2023/10/02 13:16:13;;;;;;;16.45;8.57;;;21.80;99.90;;;;;;5057979;28;20187;-79
2023/10/02 13:18:40;;;;;;;14.88;8.55;;;21.70;99.90;;;;;;5059516;28;20280;-80
2023/10/02 13:21:09;;;;;;;13.98;8.32;;;21.70;99.90;;;;;;5063325;28;20216;-79
2023/10/02 13:23:38;;;;;;;14.13;8.60;;;21.70;99.90;;;;;;5075162;28;20175;-79
2023/10/02 13:26:05;;;;;;;12.50;8.67;;;21.70;99.90;;;;;;5067969;28;20164;-80
2023/10/02 13:28:31;;;;;;;13.43;8.43;;;21.70;99.90;;;;;;5060121;28;20182;-80
2023/10/02 13:30:57;;;;;;;11.03;7.87;;;21.70;99.90;;;;;;5040493;28;20547;-80
2023/10/02 13:33:24;;;;;;;14.37;8.70;;;21.70;99.90;;;;;;5057544;28;20168;-80
2023/10/02 13:36:01;;;;;;;11.43;7.33;;;21.70;99.90;;;;;;5057657;28;20175;-80
2023/10/02 13:38:27;;;;;;;12.75;8.38;;;21.70;99.90;;;;;;5057377;28;20563;-80
2023/10/02 13:40:54;;;;;;;12.95;8.23;;;21.60;99.90;;;;;;5057156;28;20168;-80
2023/10/02 13:43:20;;;;;;;15.32;8.55;;;21.70;99.90;;;;;;5041058;28;20251;-80
2023/10/02 13:45:46;;;;;;;12.67;8.33;;;21.70;99.90;;;;;;5057372;28;20272;-80
2023/10/02 13:48:13;;;;;;;12.07;7.70;;;21.60;99.90;;;;;;5057442;28;20518;-79
2023/10/02 13:50:39;;;;;;;12.95;8.40;;;21.60;99.90;;;;;;5060648;28;20749;-80
2023/10/02 13:53:05;;;;;;;15.30;8.27;;;21.60;99.90;;;;;;5060340;28;20199;-80
2023/10/02 13:55:35;;;;;;;14.17;8.03;;;21.70;99.90;;;;;;5057734;28;20635;-80
2023/10/02 13:58:01;;;;;;;13.00;8.70;;;21.70;99.90;;;;;;5058186;28;20303;-83
2023/10/02 14:00:35;;;;;;;12.43;8.13;;;21.70;99.90;;;;;;5070395;28;20168;-81
2023/10/02 14:03:01;;;;;;;12.80;7.97;;;21.70;99.90;;;;;;5057805;28;20169;-81
2023/10/02 14:05:29;;;;;;;12.27;7.90;;;21.80;99.90;;;;;;5056361;28;20172;-79
2023/10/02 14:07:54;;;;;;;11.47;7.30;;;21.80;99.90;;;;;;5056307;28;20175;-78
2023/10/02 14:10:21;;;;;;;13.20;8.17;;;21.90;99.90;;;;;;5056160;28;20172;-80
2023/10/02 14:12:47;;;;;;;15.40;8.35;;;21.90;99.90;;;;;;5059035;28;20263;-80